MV Finola — OULQ2 — position and weather

sailwx.info

Track history (hours):
 
Tides and Currents Weather Stations Pressure Air Temp Water Temp Dewpoint Dewpoint Depression Visibility Wind Speed Wind Dir Waves Ship Positions

MV Finola

Last reported at 2016-May-19 21:33 UTC. Time now 2016-Jun-01 01:45 UTC.
Position S 32°40' E 152°43'.
Warning: this ship's position is 12 days out of date.

Length 85 m; draft 3.5 m.

Type: Cargo ship. MMSI: 219483000.

Date/timePositionNaut miles runAvg speedWind from/ knotsBaromVisibWave heightAir tempDewpointWater temp
2016-May-19 21:33S 32°40' E 152°43'13 9.1
2016-May-19 20:08S 32°52' E 152°37'6 9.0
2016-May-19 19:31S 32°57' E 152°34'27110.7
2016-May-18 18:07S 37°06' E 150°24'610.0
2016-May-18 17:33S 37°11' E 150°22'1111.3
2016-May-18 16:33S 37°22' E 150°16'1211.8
2016-May-18 15:33S 37°32' E 150°10'1211.5
2016-May-18 14:34S 37°43' E 150°04'1211.6
2016-May-18 13:34S 37°52' E 149°54'2911.7
2016-May-18 11:06S 38°09' E 149°25'712.3
2016-May-18 10:33S 38°13' E 149°18'10711.9
2016-May-18 01:33S 39°03' E 147°17'1212.2
2016-May-18 00:33S 39°07' E 147°02'1211.7
2016-May-17 23:34S 39°12' E 146°48'1111.5
2016-May-17 22:34S 39°16' E 146°34'1111.3
2016-May-17 21:33S 39°16' E 146°20'1111.1
2016-May-17 20:34S 39°13' E 146°06'  
Track history (hours):
 
Tides and Currents Weather Stations Pressure Air Temp Water Temp Dewpoint Dewpoint Depression Visibility Wind Speed Wind Dir Waves Ship Positions

MV Finola

Last reported at 2016-May-19 21:33 UTC. Time now 2016-Jun-01 01:45 UTC.
Position S 32°40' E 152°43'.
Warning: this ship's position is 12 days out of date.

Length 85 m; draft 3.5 m.

Type: Cargo ship. MMSI: 219483000.

Date/timePositionNaut miles runAvg speedWind from/ knotsBaromVisibWave heightAir tempDewpointWater temp
2016-May-19 21:33S 32°40' E 152°43'13 9.1
2016-May-19 20:08S 32°52' E 152°37'6 9.0
2016-May-19 19:31S 32°57' E 152°34'27110.7
2016-May-18 18:07S 37°06' E 150°24'610.0
2016-May-18 17:33S 37°11' E 150°22'1111.3
2016-May-18 16:33S 37°22' E 150°16'1211.8
2016-May-18 15:33S 37°32' E 150°10'1211.5
2016-May-18 14:34S 37°43' E 150°04'1211.6
2016-May-18 13:34S 37°52' E 149°54'2911.7
2016-May-18 11:06S 38°09' E 149°25'712.3
2016-May-18 10:33S 38°13' E 149°18'10711.9
2016-May-18 01:33S 39°03' E 147°17'1212.2
2016-May-18 00:33S 39°07' E 147°02'1211.7
2016-May-17 23:34S 39°12' E 146°48'1111.5
2016-May-17 22:34S 39°16' E 146°34'1111.3
2016-May-17 21:33S 39°16' E 146°20'1111.1
2016-May-17 20:34S 39°13' E 146°06'  

Dump ship's entire track history